sensor_id;sensor_type;location;lat;lon;timestamp;temperature;humidity
29803;DHT22;16702;50.898;4.662;2022-09-09T00:02:16;18.40;99.90
29803;DHT22;16702;50.898;4.662;2022-09-09T00:04:58;18.40;99.90
29803;DHT22;16702;50.898;4.662;2022-09-09T00:07:40;18.50;99.90
29803;DHT22;16702;50.898;4.662;2022-09-09T00:10:19;18.40;99.90
29803;DHT22;16702;50.898;4.662;2022-09-09T00:12:57;18.40;99.90
29803;DHT22;16702;50.898;4.662;2022-09-09T00:15:35;18.40;99.90
29803;DHT22;16702;50.898;4.662;2022-09-09T00:18:13;18.40;99.90
29803;DHT22;16702;50.898;4.662;2022-09-09T00:20:52;18.40;99.90
29803;DHT22;16702;50.898;4.662;2022-09-09T00:23:25;18.40;99.90
29803;DHT22;16702;50.898;4.662;2022-09-09T00:26:04;18.40;99.90
29803;DHT22;16702;50.898;4.662;2022-09-09T00:28:41;18.30;99.90
29803;DHT22;16702;50.898;4.662;2022-09-09T00:31:20;18.30;99.90
29803;DHT22;16702;50.898;4.662;2022-09-09T00:33:53;18.30;99.90
29803;DHT22;16702;50.898;4.662;2022-09-09T00:36:28;18.30;99.90
29803;DHT22;16702;50.898;4.662;2022-09-09T00:39:02;18.20;99.90
29803;DHT22;16702;50.898;4.662;2022-09-09T00:41:44;18.20;99.90
29803;DHT22;16702;50.898;4.662;2022-09-09T00:44:25;18.20;99.90
29803;DHT22;16702;50.898;4.662;2022-09-09T00:47:09;18.20;99.90
29803;DHT22;16702;50.898;4.662;2022-09-09T00:49:51;18.20;99.90
29803;DHT22;16702;50.898;4.662;2022-09-09T00:52:39;18.20;99.90
29803;DHT22;16702;50.898;4.662;2022-09-09T00:55:17;18.20;99.90
29803;DHT22;16702;50.898;4.662;2022-09-09T00:57:53;18.20;99.90
29803;DHT22;16702;50.898;4.662;2022-09-09T01:00:25;18.20;99.90
29803;DHT22;16702;50.898;4.662;2022-09-09T01:03:12;18.20;99.90
29803;DHT22;16702;50.898;4.662;2022-09-09T01:05:54;18.30;99.90
29803;DHT22;16702;50.898;4.662;2022-09-09T01:08:47;18.20;99.90
29803;DHT22;16702;50.898;4.662;2022-09-09T01:11:22;18.20;99.90
29803;DHT22;16702;50.898;4.662;2022-09-09T01:13:59;18.20;99.90
29803;DHT22;16702;50.898;4.662;2022-09-09T01:16:34;18.20;99.90
29803;DHT22;16702;50.898;4.662;2022-09-09T01:19:07;18.20;99.90
29803;DHT22;16702;50.898;4.662;2022-09-09T01:21:53;18.20;99.90
29803;DHT22;16702;50.898;4.662;2022-09-09T01:24:34;18.10;99.90
29803;DHT22;16702;50.898;4.662;2022-09-09T01:27:22;18.20;99.90
29803;DHT22;16702;50.898;4.662;2022-09-09T01:29:53;18.10;99.90
29803;DHT22;16702;50.898;4.662;2022-09-09T01:32:41;18.10;99.90
29803;DHT22;16702;50.898;4.662;2022-09-09T01:35:26;18.10;99.90
29803;DHT22;16702;50.898;4.662;2022-09-09T01:38:00;18.20;99.90
29803;DHT22;16702;50.898;4.662;2022-09-09T01:40:31;18.10;99.90
29803;DHT22;16702;50.898;4.662;2022-09-09T01:43:05;18.10;99.90
29803;DHT22;16702;50.898;4.662;2022-09-09T01:45:38;18.10;99.90
29803;DHT22;16702;50.898;4.662;2022-09-09T01:48:09;18.10;99.90
29803;DHT22;16702;50.898;4.662;2022-09-09T01:50:45;18.10;99.90
29803;DHT22;16702;50.898;4.662;2022-09-09T01:53:18;18.10;99.90
29803;DHT22;16702;50.898;4.662;2022-09-09T01:55:58;18.10;99.90
29803;DHT22;16702;50.898;4.662;2022-09-09T01:58:47;18.10;99.90
29803;DHT22;16702;50.898;4.662;2022-09-09T02:01:28;18.10;99.90
29803;DHT22;16702;50.898;4.662;2022-09-09T02:04:11;18.10;99.90
29803;DHT22;16702;50.898;4.662;2022-09-09T02:06:48;18.10;99.90
29803;DHT22;16702;50.898;4.662;2022-09-09T02:09:25;18.10;99.90
29803;DHT22;16702;50.898;4.662;2022-09-09T02:12:02;18.10;99.90
29803;DHT22;16702;50.898;4.662;2022-09-09T02:14:48;18.10;99.90
29803;DHT22;16702;50.898;4.662;2022-09-09T02:17:26;18.00;99.90
29803;DHT22;16702;50.898;4.662;2022-09-09T02:20:06;18.00;99.90
29803;DHT22;16702;50.898;4.662;2022-09-09T02:22:45;18.00;99.90
29803;DHT22;16702;50.898;4.662;2022-09-09T02:25:21;18.00;99.90
29803;DHT22;16702;50.898;4.662;2022-09-09T02:27:55;18.00;99.90
29803;DHT22;16702;50.898;4.662;2022-09-09T02:30:31;18.00;99.90
29803;DHT22;16702;50.898;4.662;2022-09-09T02:33:05;17.90;99.90
29803;DHT22;16702;50.898;4.662;2022-09-09T02:35:48;18.00;99.90
29803;DHT22;16702;50.898;4.662;2022-09-09T02:38:26;18.00;99.90
29803;DHT22;16702;50.898;4.662;2022-09-09T02:41:03;18.00;99.90
29803;DHT22;16702;50.898;4.662;2022-09-09T02:43:34;18.00;99.90
29803;DHT22;16702;50.898;4.662;2022-09-09T02:46:26;18.00;99.90
29803;DHT22;16702;50.898;4.662;2022-09-09T02:49:02;18.00;99.90
29803;DHT22;16702;50.898;4.662;2022-09-09T02:51:45;18.00;99.90
29803;DHT22;16702;50.898;4.662;2022-09-09T02:54:24;18.00;99.90
29803;DHT22;16702;50.898;4.662;2022-09-09T02:57:06;18.00;99.90
29803;DHT22;16702;50.898;4.662;2022-09-09T02:59:39;18.00;99.90
29803;DHT22;16702;50.898;4.662;2022-09-09T03:02:13;17.90;99.90
29803;DHT22;16702;50.898;4.662;2022-09-09T03:04:47;17.90;99.90
29803;DHT22;16702;50.898;4.662;2022-09-09T03:07:19;17.90;99.90
29803;DHT22;16702;50.898;4.662;2022-09-09T03:09:51;17.90;99.90
29803;DHT22;16702;50.898;4.662;2022-09-09T03:12:25;18.00;99.90
29803;DHT22;16702;50.898;4.662;2022-09-09T03:14:55;18.00;99.90
29803;DHT22;16702;50.898;4.662;2022-09-09T03:17:28;17.90;99.90
29803;DHT22;16702;50.898;4.662;2022-09-09T03:19:58;18.00;99.90
29803;DHT22;16702;50.898;4.662;2022-09-09T03:22:29;17.90;99.90
29803;DHT22;16702;50.898;4.662;2022-09-09T03:25:01;17.90;99.90
29803;DHT22;16702;50.898;4.662;2022-09-09T03:27:35;17.90;99.90
29803;DHT22;16702;50.898;4.662;2022-09-09T03:30:07;17.90;99.90
29803;DHT22;16702;50.898;4.662;2022-09-09T03:32:40;17.90;99.90
29803;DHT22;16702;50.898;4.662;2022-09-09T03:35:15;17.90;99.90
29803;DHT22;16702;50.898;4.662;2022-09-09T03:37:46;17.80;99.90
29803;DHT22;16702;50.898;4.662;2022-09-09T03:40:16;17.80;99.90
29803;DHT22;16702;50.898;4.662;2022-09-09T03:42:47;17.90;99.90
29803;DHT22;16702;50.898;4.662;2022-09-09T03:45:18;17.80;99.90
29803;DHT22;16702;50.898;4.662;2022-09-09T03:47:51;17.90;99.90
29803;DHT22;16702;50.898;4.662;2022-09-09T03:50:21;17.90;99.90
29803;DHT22;16702;50.898;4.662;2022-09-09T03:52:52;17.90;99.90
29803;DHT22;16702;50.898;4.662;2022-09-09T03:55:22;17.90;99.90
29803;DHT22;16702;50.898;4.662;2022-09-09T03:57:52;17.80;99.90
29803;DHT22;16702;50.898;4.662;2022-09-09T04:00:23;17.80;99.90
29803;DHT22;16702;50.898;4.662;2022-09-09T04:02:56;17.80;99.90
29803;DHT22;16702;50.898;4.662;2022-09-09T04:05:26;17.90;99.90
29803;DHT22;16702;50.898;4.662;2022-09-09T04:07:57;17.80;99.90
29803;DHT22;16702;50.898;4.662;2022-09-09T04:10:28;17.80;99.90
29803;DHT22;16702;50.898;4.662;2022-09-09T04:12:59;17.80;99.90
29803;DHT22;16702;50.898;4.662;2022-09-09T04:15:30;17.70;99.90
29803;DHT22;16702;50.898;4.662;2022-09-09T04:18:04;17.70;99.90
29803;DHT22;16702;50.898;4.662;2022-09-09T04:20:35;17.80;99.90
29803;DHT22;16702;50.898;4.662;2022-09-09T04:23:05;17.70;99.90
29803;DHT22;16702;50.898;4.662;2022-09-09T04:25:35;17.80;99.90
29803;DHT22;16702;50.898;4.662;2022-09-09T04:28:06;17.70;99.90
29803;DHT22;16702;50.898;4.662;2022-09-09T04:30:36;17.80;99.90
29803;DHT22;16702;50.898;4.662;2022-09-09T04:33:10;17.70;99.90
29803;DHT22;16702;50.898;4.662;2022-09-09T04:35:44;17.70;99.90
29803;DHT22;16702;50.898;4.662;2022-09-09T04:38:16;17.70;99.90
29803;DHT22;16702;50.898;4.662;2022-09-09T04:40:48;17.70;99.90
29803;DHT22;16702;50.898;4.662;2022-09-09T04:43:21;17.70;99.90
29803;DHT22;16702;50.898;4.662;2022-09-09T04:45:53;17.70;99.90
29803;DHT22;16702;50.898;4.662;2022-09-09T04:48:27;17.70;99.90
29803;DHT22;16702;50.898;4.662;2022-09-09T04:51:00;17.70;99.90
29803;DHT22;16702;50.898;4.662;2022-09-09T04:53:33;17.70;99.90
29803;DHT22;16702;50.898;4.662;2022-09-09T04:56:07;17.70;99.90
29803;DHT22;16702;50.898;4.662;2022-09-09T04:58:42;17.70;99.90
29803;DHT22;16702;50.898;4.662;2022-09-09T05:01:15;17.60;99.90
29803;DHT22;16702;50.898;4.662;2022-09-09T05:03:51;17.60;99.90
29803;DHT22;16702;50.898;4.662;2022-09-09T05:06:23;17.60;99.90
29803;DHT22;16702;50.898;4.662;2022-09-09T05:08:57;17.60;99.90
29803;DHT22;16702;50.898;4.662;2022-09-09T05:11:30;17.60;99.90
29803;DHT22;16702;50.898;4.662;2022-09-09T05:14:20;17.50;99.90
29803;DHT22;16702;50.898;4.662;2022-09-09T05:16:50;17.50;99.90
29803;DHT22;16702;50.898;4.662;2022-09-09T05:19:24;17.50;99.90
29803;DHT22;16702;50.898;4.662;2022-09-09T05:21:55;17.50;99.90
29803;DHT22;16702;50.898;4.662;2022-09-09T05:24:33;17.50;99.90
29803;DHT22;16702;50.898;4.662;2022-09-09T05:27:04;17.50;99.90
29803;DHT22;16702;50.898;4.662;2022-09-09T05:29:34;17.50;99.90
29803;DHT22;16702;50.898;4.662;2022-09-09T05:32:07;17.50;99.90
29803;DHT22;16702;50.898;4.662;2022-09-09T05:34:46;17.50;99.90
29803;DHT22;16702;50.898;4.662;2022-09-09T05:37:17;17.40;99.90
29803;DHT22;16702;50.898;4.662;2022-09-09T05:39:48;17.40;99.90
29803;DHT22;16702;50.898;4.662;2022-09-09T05:42:19;17.40;99.90
29803;DHT22;16702;50.898;4.662;2022-09-09T05:44:49;17.50;99.90
29803;DHT22;16702;50.898;4.662;2022-09-09T05:47:21;17.50;99.90
29803;DHT22;16702;50.898;4.662;2022-09-09T05:49:55;17.50;99.90
29803;DHT22;16702;50.898;4.662;2022-09-09T05:52:25;17.60;99.90
29803;DHT22;16702;50.898;4.662;2022-09-09T05:54:57;17.50;99.90
29803;DHT22;16702;50.898;4.662;2022-09-09T05:57:28;17.60;99.90
29803;DHT22;16702;50.898;4.662;2022-09-09T05:59:58;17.60;99.90
29803;DHT22;16702;50.898;4.662;2022-09-09T06:02:39;17.50;99.90
29803;DHT22;16702;50.898;4.662;2022-09-09T06:05:16;17.60;99.90
29803;DHT22;16702;50.898;4.662;2022-09-09T06:07:46;17.60;99.90
29803;DHT22;16702;50.898;4.662;2022-09-09T06:10:18;17.60;99.90
29803;DHT22;16702;50.898;4.662;2022-09-09T06:12:48;17.50;99.90
29803;DHT22;16702;50.898;4.662;2022-09-09T06:15:19;17.40;99.90
29803;DHT22;16702;50.898;4.662;2022-09-09T06:17:54;17.50;99.90
29803;DHT22;16702;50.898;4.662;2022-09-09T06:20:27;17.50;99.90
29803;DHT22;16702;50.898;4.662;2022-09-09T06:22:59;17.50;99.90
29803;DHT22;16702;50.898;4.662;2022-09-09T06:25:30;17.50;99.90
29803;DHT22;16702;50.898;4.662;2022-09-09T06:28:02;17.60;99.90
29803;DHT22;16702;50.898;4.662;2022-09-09T06:30:32;17.60;99.90
29803;DHT22;16702;50.898;4.662;2022-09-09T06:33:03;17.60;99.90
29803;DHT22;16702;50.898;4.662;2022-09-09T06:35:36;17.50;99.90
29803;DHT22;16702;50.898;4.662;2022-09-09T06:38:06;17.60;99.90
29803;DHT22;16702;50.898;4.662;2022-09-09T06:40:37;17.60;99.90
29803;DHT22;16702;50.898;4.662;2022-09-09T06:43:08;17.60;99.90
29803;DHT22;16702;50.898;4.662;2022-09-09T06:45:53;17.60;99.90
29803;DHT22;16702;50.898;4.662;2022-09-09T06:48:24;17.60;99.90
29803;DHT22;16702;50.898;4.662;2022-09-09T06:51:06;17.60;99.90
29803;DHT22;16702;50.898;4.662;2022-09-09T06:53:39;17.60;99.90
29803;DHT22;16702;50.898;4.662;2022-09-09T06:56:20;17.60;99.90
29803;DHT22;16702;50.898;4.662;2022-09-09T06:58:54;17.60;99.90
29803;DHT22;16702;50.898;4.662;2022-09-09T07:01:30;17.70;99.90
29803;DHT22;16702;50.898;4.662;2022-09-09T07:04:05;17.70;99.90
29803;DHT22;16702;50.898;4.662;2022-09-09T07:06:42;17.60;99.90
29803;DHT22;16702;50.898;4.662;2022-09-09T07:09:20;17.60;99.90
29803;DHT22;16702;50.898;4.662;2022-09-09T07:11:53;17.70;99.90
29803;DHT22;16702;50.898;4.662;2022-09-09T07:14:28;17.70;99.90
29803;DHT22;16702;50.898;4.662;2022-09-09T07:17:03;17.70;99.90
29803;DHT22;16702;50.898;4.662;2022-09-09T07:19:37;17.70;99.90
29803;DHT22;16702;50.898;4.662;2022-09-09T07:22:11;17.70;99.90
29803;DHT22;16702;50.898;4.662;2022-09-09T07:24:42;17.70;99.90
29803;DHT22;16702;50.898;4.662;2022-09-09T07:27:14;17.60;99.90
29803;DHT22;16702;50.898;4.662;2022-09-09T07:29:47;17.70;99.90
29803;DHT22;16702;50.898;4.662;2022-09-09T07:32:17;17.70;99.90
29803;DHT22;16702;50.898;4.662;2022-09-09T07:34:48;17.70;99.90
29803;DHT22;16702;50.898;4.662;2022-09-09T07:37:21;17.80;99.90
29803;DHT22;16702;50.898;4.662;2022-09-09T07:39:52;17.70;99.90
29803;DHT22;16702;50.898;4.662;2022-09-09T07:42:23;17.70;99.90
29803;DHT22;16702;50.898;4.662;2022-09-09T07:44:54;17.70;99.90
29803;DHT22;16702;50.898;4.662;2022-09-09T07:47:25;17.70;99.90
29803;DHT22;16702;50.898;4.662;2022-09-09T07:49:56;17.80;99.90
29803;DHT22;16702;50.898;4.662;2022-09-09T07:52:33;17.80;99.90
29803;DHT22;16702;50.898;4.662;2022-09-09T07:55:06;17.80;99.90
29803;DHT22;16702;50.898;4.662;2022-09-09T07:57:37;17.70;99.90
29803;DHT22;16702;50.898;4.662;2022-09-09T08:00:10;17.80;99.90
29803;DHT22;16702;50.898;4.662;2022-09-09T08:02:46;17.90;99.90
29803;DHT22;16702;50.898;4.662;2022-09-09T08:05:17;17.90;99.90
29803;DHT22;16702;50.898;4.662;2022-09-09T08:07:52;17.90;99.90
29803;DHT22;16702;50.898;4.662;2022-09-09T08:10:23;17.90;99.90
29803;DHT22;16702;50.898;4.662;2022-09-09T08:12:55;17.90;99.90
29803;DHT22;16702;50.898;4.662;2022-09-09T08:15:45;17.90;99.90
29803;DHT22;16702;50.898;4.662;2022-09-09T08:18:18;18.00;99.90
29803;DHT22;16702;50.898;4.662;2022-09-09T08:20:49;18.00;99.90
29803;DHT22;16702;50.898;4.662;2022-09-09T08:23:23;17.90;99.90
29803;DHT22;16702;50.898;4.662;2022-09-09T08:25:53;18.00;99.90
29803;DHT22;16702;50.898;4.662;2022-09-09T08:28:24;18.10;99.90
29803;DHT22;16702;50.898;4.662;2022-09-09T08:30:54;18.10;99.90
29803;DHT22;16702;50.898;4.662;2022-09-09T08:33:25;18.10;99.90
29803;DHT22;16702;50.898;4.662;2022-09-09T08:35:56;18.20;99.90
29803;DHT22;16702;50.898;4.662;2022-09-09T08:38:29;18.20;99.90
29803;DHT22;16702;50.898;4.662;2022-09-09T08:41:12;18.20;99.90
29803;DHT22;16702;50.898;4.662;2022-09-09T08:43:47;18.20;99.90
29803;DHT22;16702;50.898;4.662;2022-09-09T08:46:24;18.20;99.90
29803;DHT22;16702;50.898;4.662;2022-09-09T08:48:59;18.20;99.90
29803;DHT22;16702;50.898;4.662;2022-09-09T08:51:32;18.20;99.90
29803;DHT22;16702;50.898;4.662;2022-09-09T08:54:07;18.20;99.90
29803;DHT22;16702;50.898;4.662;2022-09-09T08:56:39;18.20;99.90
29803;DHT22;16702;50.898;4.662;2022-09-09T08:59:12;18.20;99.90
29803;DHT22;16702;50.898;4.662;2022-09-09T09:02:03;18.30;99.90
29803;DHT22;16702;50.898;4.662;2022-09-09T09:04:56;18.20;99.90
29803;DHT22;16702;50.898;4.662;2022-09-09T09:07:39;18.10;99.90
29803;DHT22;16702;50.898;4.662;2022-09-09T09:10:23;18.10;99.90
29803;DHT22;16702;50.898;4.662;2022-09-09T09:13:14;18.10;99.90
29803;DHT22;16702;50.898;4.662;2022-09-09T09:15:54;18.10;99.90
29803;DHT22;16702;50.898;4.662;2022-09-09T09:18:27;18.10;99.90
29803;DHT22;16702;50.898;4.662;2022-09-09T09:21:01;18.20;99.90
29803;DHT22;16702;50.898;4.662;2022-09-09T09:23:41;18.20;99.90
29803;DHT22;16702;50.898;4.662;2022-09-09T09:26:15;18.10;99.90
29803;DHT22;16702;50.898;4.662;2022-09-09T09:28:46;18.10;99.90
29803;DHT22;16702;50.898;4.662;2022-09-09T09:31:20;18.10;99.90
29803;DHT22;16702;50.898;4.662;2022-09-09T09:33:55;18.20;99.90
29803;DHT22;16702;50.898;4.662;2022-09-09T09:36:37;18.20;99.90
29803;DHT22;16702;50.898;4.662;2022-09-09T09:39:23;18.20;99.90
29803;DHT22;16702;50.898;4.662;2022-09-09T09:42:18;18.20;99.90
29803;DHT22;16702;50.898;4.662;2022-09-09T09:44:53;18.10;99.90
29803;DHT22;16702;50.898;4.662;2022-09-09T09:47:23;18.20;99.90
29803;DHT22;16702;50.898;4.662;2022-09-09T09:50:19;18.20;99.90
29803;DHT22;16702;50.898;4.662;2022-09-09T09:52:56;18.10;99.90
29803;DHT22;16702;50.898;4.662;2022-09-09T09:55:30;18.10;99.90
29803;DHT22;16702;50.898;4.662;2022-09-09T09:58:06;18.10;99.90
29803;DHT22;16702;50.898;4.662;2022-09-09T10:00:48;18.20;99.90
29803;DHT22;16702;50.898;4.662;2022-09-09T10:03:25;18.20;99.90
29803;DHT22;16702;50.898;4.662;2022-09-09T10:05:58;18.10;99.90
29803;DHT22;16702;50.898;4.662;2022-09-09T10:08:28;18.10;99.90
29803;DHT22;16702;50.898;4.662;2022-09-09T10:11:18;18.20;99.90
29803;DHT22;16702;50.898;4.662;2022-09-09T10:14:03;18.10;99.90
29803;DHT22;16702;50.898;4.662;2022-09-09T10:16:45;18.20;99.90
29803;DHT22;16702;50.898;4.662;2022-09-09T10:19:26;18.20;99.90
29803;DHT22;16702;50.898;4.662;2022-09-09T10:22:08;18.20;99.90
29803;DHT22;16702;50.898;4.662;2022-09-09T10:27:45;18.20;99.90
29803;DHT22;16702;50.898;4.662;2022-09-09T10:30:31;18.30;99.90
29803;DHT22;16702;50.898;4.662;2022-09-09T10:33:10;18.30;99.90
29803;DHT22;16702;50.898;4.662;2022-09-09T10:35:45;18.40;99.90
29803;DHT22;16702;50.898;4.662;2022-09-09T10:38:24;18.30;99.90
29803;DHT22;16702;50.898;4.662;2022-09-09T10:41:12;18.40;99.90
29803;DHT22;16702;50.898;4.662;2022-09-09T10:44:03;18.40;99.90
29803;DHT22;16702;50.898;4.662;2022-09-09T10:46:50;18.40;99.90
29803;DHT22;16702;50.898;4.662;2022-09-09T10:49:33;18.40;99.90
29803;DHT22;16702;50.898;4.662;2022-09-09T10:52:14;18.40;99.90
29803;DHT22;16702;50.898;4.662;2022-09-09T10:54:54;18.40;99.90
29803;DHT22;16702;50.898;4.662;2022-09-09T10:57:31;18.50;99.90
29803;DHT22;16702;50.898;4.662;2022-09-09T11:00:10;18.50;99.90
29803;DHT22;16702;50.898;4.662;2022-09-09T11:02:50;18.60;99.90
29803;DHT22;16702;50.898;4.662;2022-09-09T11:05:26;18.50;99.90
29803;DHT22;16702;50.898;4.662;2022-09-09T11:08:00;18.60;99.90
29803;DHT22;16702;50.898;4.662;2022-09-09T11:10:38;18.70;99.90
29803;DHT22;16702;50.898;4.662;2022-09-09T11:13:13;18.80;99.90
29803;DHT22;16702;50.898;4.662;2022-09-09T11:15:49;18.90;99.90
29803;DHT22;16702;50.898;4.662;2022-09-09T11:18:23;19.10;99.90
29803;DHT22;16702;50.898;4.662;2022-09-09T11:20:58;19.00;99.90
29803;DHT22;16702;50.898;4.662;2022-09-09T11:23:36;19.10;99.90
29803;DHT22;16702;50.898;4.662;2022-09-09T11:26:15;19.10;99.90
29803;DHT22;16702;50.898;4.662;2022-09-09T11:28:58;19.30;99.90
29803;DHT22;16702;50.898;4.662;2022-09-09T11:31:42;19.30;99.90
29803;DHT22;16702;50.898;4.662;2022-09-09T11:34:31;19.30;99.90
29803;DHT22;16702;50.898;4.662;2022-09-09T11:40:09;19.50;99.90
29803;DHT22;16702;50.898;4.662;2022-09-09T11:42:44;19.60;99.90
29803;DHT22;16702;50.898;4.662;2022-09-09T11:45:22;19.80;99.90
29803;DHT22;16702;50.898;4.662;2022-09-09T11:47:57;19.80;99.90
29803;DHT22;16702;50.898;4.662;2022-09-09T11:50:33;19.80;99.90
29803;DHT22;16702;50.898;4.662;2022-09-09T11:53:20;19.80;99.90
29803;DHT22;16702;50.898;4.662;2022-09-09T11:56:02;19.70;99.90
29803;DHT22;16702;50.898;4.662;2022-09-09T11:58:41;19.60;99.90
29803;DHT22;16702;50.898;4.662;2022-09-09T12:01:14;19.60;99.90
29803;DHT22;16702;50.898;4.662;2022-09-09T12:03:48;19.60;99.90
29803;DHT22;16702;50.898;4.662;2022-09-09T12:06:29;19.70;99.90
29803;DHT22;16702;50.898;4.662;2022-09-09T12:09:07;19.80;99.90
29803;DHT22;16702;50.898;4.662;2022-09-09T12:11:38;19.70;99.90
29803;DHT22;16702;50.898;4.662;2022-09-09T12:14:19;19.70;99.90
29803;DHT22;16702;50.898;4.662;2022-09-09T12:16:50;19.80;99.90
29803;DHT22;16702;50.898;4.662;2022-09-09T12:19:22;19.90;99.90
29803;DHT22;16702;50.898;4.662;2022-09-09T12:22:03;19.90;99.90
29803;DHT22;16702;50.898;4.662;2022-09-09T12:24:40;19.80;99.90
29803;DHT22;16702;50.898;4.662;2022-09-09T12:27:17;19.80;99.90
29803;DHT22;16702;50.898;4.662;2022-09-09T12:29:56;19.90;99.90
29803;DHT22;16702;50.898;4.662;2022-09-09T12:32:27;19.90;99.90
29803;DHT22;16702;50.898;4.662;2022-09-09T12:35:00;20.00;99.90
29803;DHT22;16702;50.898;4.662;2022-09-09T12:37:37;20.00;99.90
29803;DHT22;16702;50.898;4.662;2022-09-09T12:40:20;20.00;99.90
29803;DHT22;16702;50.898;4.662;2022-09-09T12:42:51;20.00;99.90
29803;DHT22;16702;50.898;4.662;2022-09-09T12:45:24;20.00;99.90
29803;DHT22;16702;50.898;4.662;2022-09-09T12:47:57;20.00;99.90
29803;DHT22;16702;50.898;4.662;2022-09-09T12:50:30;20.00;99.90
29803;DHT22;16702;50.898;4.662;2022-09-09T12:53:08;20.00;99.90
29803;DHT22;16702;50.898;4.662;2022-09-09T12:55:50;19.90;99.90
29803;DHT22;16702;50.898;4.662;2022-09-09T12:58:21;19.90;99.90
29803;DHT22;16702;50.898;4.662;2022-09-09T13:00:53;19.90;99.90
29803;DHT22;16702;50.898;4.662;2022-09-09T13:03:25;20.10;99.90
29803;DHT22;16702;50.898;4.662;2022-09-09T13:05:59;20.20;99.90
29803;DHT22;16702;50.898;4.662;2022-09-09T13:08:32;20.30;99.90
29803;DHT22;16702;50.898;4.662;2022-09-09T13:11:06;20.30;99.90
29803;DHT22;16702;50.898;4.662;2022-09-09T13:13:40;20.20;99.90
29803;DHT22;16702;50.898;4.662;2022-09-09T13:16:20;20.30;99.90
29803;DHT22;16702;50.898;4.662;2022-09-09T13:18:52;20.30;99.90
29803;DHT22;16702;50.898;4.662;2022-09-09T13:21:32;20.40;99.90
29803;DHT22;16702;50.898;4.662;2022-09-09T13:24:07;20.70;99.90
29803;DHT22;16702;50.898;4.662;2022-09-09T13:26:55;20.70;99.90
29803;DHT22;16702;50.898;4.662;2022-09-09T13:29:30;20.60;99.90
29803;DHT22;16702;50.898;4.662;2022-09-09T13:32:04;20.60;99.90
29803;DHT22;16702;50.898;4.662;2022-09-09T13:34:35;20.60;99.90
29803;DHT22;16702;50.898;4.662;2022-09-09T13:37:20;20.70;99.90
29803;DHT22;16702;50.898;4.662;2022-09-09T13:39:55;20.80;99.90
29803;DHT22;16702;50.898;4.662;2022-09-09T13:42:27;20.80;99.90
29803;DHT22;16702;50.898;4.662;2022-09-09T13:44:59;20.60;99.90
29803;DHT22;16702;50.898;4.662;2022-09-09T13:47:33;20.80;99.90
29803;DHT22;16702;50.898;4.662;2022-09-09T13:50:18;20.90;99.90
29803;DHT22;16702;50.898;4.662;2022-09-09T13:52:51;20.90;99.90
29803;DHT22;16702;50.898;4.662;2022-09-09T13:55:26;20.90;99.90
29803;DHT22;16702;50.898;4.662;2022-09-09T13:57:58;20.80;99.90
29803;DHT22;16702;50.898;4.662;2022-09-09T14:00:31;20.80;99.90
29803;DHT22;16702;50.898;4.662;2022-09-09T14:03:02;20.90;99.90
29803;DHT22;16702;50.898;4.662;2022-09-09T14:05:33;21.00;99.90
29803;DHT22;16702;50.898;4.662;2022-09-09T14:08:05;21.00;99.90
29803;DHT22;16702;50.898;4.662;2022-09-09T14:10:38;20.90;99.90
29803;DHT22;16702;50.898;4.662;2022-09-09T14:13:09;21.30;99.90
29803;DHT22;16702;50.898;4.662;2022-09-09T14:15:39;21.50;99.90
29803;DHT22;16702;50.898;4.662;2022-09-09T14:18:11;21.60;99.90
29803;DHT22;16702;50.898;4.662;2022-09-09T14:20:44;21.50;99.90
29803;DHT22;16702;50.898;4.662;2022-09-09T14:23:14;21.30;99.90
29803;DHT22;16702;50.898;4.662;2022-09-09T14:25:48;21.20;99.90
29803;DHT22;16702;50.898;4.662;2022-09-09T14:28:19;21.20;99.90
29803;DHT22;16702;50.898;4.662;2022-09-09T14:31:09;21.30;99.90
29803;DHT22;16702;50.898;4.662;2022-09-09T14:33:40;21.40;99.90
29803;DHT22;16702;50.898;4.662;2022-09-09T14:36:11;21.40;99.90
29803;DHT22;16702;50.898;4.662;2022-09-09T14:38:42;21.20;99.90
29803;DHT22;16702;50.898;4.662;2022-09-09T14:41:17;21.10;99.90
29803;DHT22;16702;50.898;4.662;2022-09-09T14:43:49;21.10;99.90
29803;DHT22;16702;50.898;4.662;2022-09-09T14:46:21;21.20;99.90
29803;DHT22;16702;50.898;4.662;2022-09-09T14:48:51;21.10;99.90
29803;DHT22;16702;50.898;4.662;2022-09-09T14:51:24;21.10;99.90
29803;DHT22;16702;50.898;4.662;2022-09-09T14:53:56;21.10;99.90
29803;DHT22;16702;50.898;4.662;2022-09-09T14:56:32;21.10;99.90
29803;DHT22;16702;50.898;4.662;2022-09-09T14:59:03;21.30;99.90
29803;DHT22;16702;50.898;4.662;2022-09-09T15:01:34;21.60;99.90
29803;DHT22;16702;50.898;4.662;2022-09-09T15:04:05;21.50;99.90
29803;DHT22;16702;50.898;4.662;2022-09-09T15:06:36;21.40;99.90
29803;DHT22;16702;50.898;4.662;2022-09-09T15:09:07;21.40;99.90
29803;DHT22;16702;50.898;4.662;2022-09-09T15:11:40;21.40;99.90
29803;DHT22;16702;50.898;4.662;2022-09-09T15:14:11;21.40;99.90
29803;DHT22;16702;50.898;4.662;2022-09-09T15:16:42;21.40;99.90
29803;DHT22;16702;50.898;4.662;2022-09-09T15:19:12;21.50;99.90
29803;DHT22;16702;50.898;4.662;2022-09-09T15:21:42;21.50;99.90
29803;DHT22;16702;50.898;4.662;2022-09-09T15:24:13;21.50;99.90
29803;DHT22;16702;50.898;4.662;2022-09-09T15:26:47;21.50;99.90
29803;DHT22;16702;50.898;4.662;2022-09-09T15:29:17;21.40;99.90
29803;DHT22;16702;50.898;4.662;2022-09-09T15:31:47;21.40;99.90
29803;DHT22;16702;50.898;4.662;2022-09-09T15:34:18;21.50;99.90
29803;DHT22;16702;50.898;4.662;2022-09-09T15:36:48;21.50;99.90
29803;DHT22;16702;50.898;4.662;2022-09-09T15:39:18;21.50;99.90
29803;DHT22;16702;50.898;4.662;2022-09-09T15:41:51;21.60;99.90
29803;DHT22;16702;50.898;4.662;2022-09-09T15:44:22;21.60;99.90
29803;DHT22;16702;50.898;4.662;2022-09-09T15:46:53;21.70;99.90
29803;DHT22;16702;50.898;4.662;2022-09-09T15:49:25;21.60;99.90
29803;DHT22;16702;50.898;4.662;2022-09-09T15:51:57;21.50;99.90
29803;DHT22;16702;50.898;4.662;2022-09-09T15:54:32;21.40;99.90
29803;DHT22;16702;50.898;4.662;2022-09-09T15:57:07;21.30;99.90
29803;DHT22;16702;50.898;4.662;2022-09-09T15:59:38;21.40;99.90
29803;DHT22;16702;50.898;4.662;2022-09-09T16:02:09;21.30;99.90
29803;DHT22;16702;50.898;4.662;2022-09-09T16:04:39;21.30;99.90
29803;DHT22;16702;50.898;4.662;2022-09-09T16:07:10;21.40;99.90
29803;DHT22;16702;50.898;4.662;2022-09-09T16:09:40;21.50;99.90
29803;DHT22;16702;50.898;4.662;2022-09-09T16:12:13;21.60;99.90
29803;DHT22;16702;50.898;4.662;2022-09-09T16:14:44;21.70;99.90
29803;DHT22;16702;50.898;4.662;2022-09-09T16:17:14;21.60;99.90
29803;DHT22;16702;50.898;4.662;2022-09-09T16:19:46;21.60;99.90
29803;DHT22;16702;50.898;4.662;2022-09-09T16:22:16;21.50;99.90
29803;DHT22;16702;50.898;4.662;2022-09-09T16:24:47;21.40;99.90
29803;DHT22;16702;50.898;4.662;2022-09-09T16:27:20;21.20;99.90